sensor_id;sensor_type;location;lat;lon;timestamp;pressure;altitude;pressure_sealevel;temperature;humidity
48204;BME280;33994;50.998;5.864;2023-01-28T00:01:34;102316.84;;;2.48;83.93
48204;BME280;33994;50.998;5.864;2023-01-28T00:04:37;102312.50;;;2.47;84.00
48204;BME280;33994;50.998;5.864;2023-01-28T00:07:40;102309.91;;;2.47;83.94
48204;BME280;33994;50.998;5.864;2023-01-28T00:10:43;102310.78;;;2.47;83.96
48204;BME280;33994;50.998;5.864;2023-01-28T00:13:49;102315.28;;;2.51;83.46
48204;BME280;33994;50.998;5.864;2023-01-28T00:16:54;102306.56;;;2.49;83.42
48204;BME280;33994;50.998;5.864;2023-01-28T00:19:56;102317.75;;;2.48;83.50
48204;BME280;33994;50.998;5.864;2023-01-28T00:23:00;102310.00;;;2.48;83.62
48204;BME280;33994;50.998;5.864;2023-01-28T00:26:04;102304.69;;;2.45;83.40
48204;BME280;33994;50.998;5.864;2023-01-28T00:29:07;102299.66;;;2.48;83.20
48204;BME280;33994;50.998;5.864;2023-01-28T00:32:12;102301.22;;;2.45;82.88
48204;BME280;33994;50.998;5.864;2023-01-28T00:35:15;102295.25;;;2.46;82.98
48204;BME280;33994;50.998;5.864;2023-01-28T00:38:18;102293.53;;;2.46;82.70
48204;BME280;33994;50.998;5.864;2023-01-28T00:41:22;102298.50;;;2.41;82.57
48204;BME280;33994;50.998;5.864;2023-01-28T00:44:25;102289.06;;;2.42;82.31
48204;BME280;33994;50.998;5.864;2023-01-28T00:47:30;102291.72;;;2.44;82.49
48204;BME280;33994;50.998;5.864;2023-01-28T00:50:33;102295.28;;;2.47;82.21
48204;BME280;33994;50.998;5.864;2023-01-28T00:53:36;102296.13;;;2.46;82.06
48204;BME280;33994;50.998;5.864;2023-01-28T00:56:40;102298.50;;;2.41;82.26
48204;BME280;33994;50.998;5.864;2023-01-28T00:59:43;102302.81;;;2.41;82.19
48204;BME280;33994;50.998;5.864;2023-01-28T01:02:47;102292.34;;;2.38;81.69
48204;BME280;33994;50.998;5.864;2023-01-28T01:05:50;102297.50;;;2.38;81.77
48204;BME280;33994;50.998;5.864;2023-01-28T01:08:53;102301.03;;;2.40;81.76
48204;BME280;33994;50.998;5.864;2023-01-28T01:11:56;102295.88;;;2.40;81.68
48204;BME280;33994;50.998;5.864;2023-01-28T01:14:59;102300.03;;;2.36;81.68
48204;BME280;33994;50.998;5.864;2023-01-28T01:18:04;102307.69;;;2.35;81.91
48204;BME280;33994;50.998;5.864;2023-01-28T01:21:08;102308.53;;;2.34;81.86
48204;BME280;33994;50.998;5.864;2023-01-28T01:24:12;102304.97;;;2.32;81.65
48204;BME280;33994;50.998;5.864;2023-01-28T01:27:15;102307.50;;;2.30;81.51
48204;BME280;33994;50.998;5.864;2023-01-28T01:30:18;102314.50;;;2.33;81.55
48204;BME280;33994;50.998;5.864;2023-01-28T01:33:22;102317.00;;;2.31;81.87
48204;BME280;33994;50.998;5.864;2023-01-28T01:36:26;102325.63;;;2.32;81.72
48204;BME280;33994;50.998;5.864;2023-01-28T01:39:28;102316.97;;;2.30;81.62
48204;BME280;33994;50.998;5.864;2023-01-28T01:42:32;102318.47;;;2.25;82.12
48204;BME280;33994;50.998;5.864;2023-01-28T01:45:35;102314.22;;;2.27;82.03
48204;BME280;33994;50.998;5.864;2023-01-28T01:48:40;102319.59;;;2.31;82.03
48204;BME280;33994;50.998;5.864;2023-01-28T01:51:45;102316.13;;;2.31;82.10
48204;BME280;33994;50.998;5.864;2023-01-28T01:54:53;102314.50;;;2.33;81.85
48204;BME280;33994;50.998;5.864;2023-01-28T01:57:58;102315.19;;;2.29;81.63
48204;BME280;33994;50.998;5.864;2023-01-28T02:01:04;102322.94;;;2.29;81.69
48204;BME280;33994;50.998;5.864;2023-01-28T02:04:12;102324.56;;;2.27;81.86
48204;BME280;33994;50.998;5.864;2023-01-28T02:07:17;102330.56;;;2.26;81.95
48204;BME280;33994;50.998;5.864;2023-01-28T02:10:22;102335.75;;;2.27;82.24
48204;BME280;33994;50.998;5.864;2023-01-28T02:13:29;102329.81;;;2.28;81.83
48204;BME280;33994;50.998;5.864;2023-01-28T02:16:34;102320.13;;;2.24;82.00
48204;BME280;33994;50.998;5.864;2023-01-28T02:19:44;102323.63;;;2.25;81.99
48204;BME280;33994;50.998;5.864;2023-01-28T02:23:17;102322.53;;;2.20;82.00
48204;BME280;33994;50.998;5.864;2023-01-28T02:26:41;102325.94;;;2.18;81.96
48204;BME280;33994;50.998;5.864;2023-01-28T02:29:55;102327.69;;;2.20;82.36
48204;BME280;33994;50.998;5.864;2023-01-28T02:33:05;102322.38;;;2.16;81.81
48204;BME280;33994;50.998;5.864;2023-01-28T02:36:19;102328.25;;;2.12;82.14
48204;BME280;33994;50.998;5.864;2023-01-28T02:39:28;102322.16;;;2.10;82.37
48204;BME280;33994;50.998;5.864;2023-01-28T02:42:34;102328.25;;;2.12;82.02
48204;BME280;33994;50.998;5.864;2023-01-28T02:45:39;102330.03;;;2.13;82.33
48204;BME280;33994;50.998;5.864;2023-01-28T02:48:43;102337.78;;;2.13;82.31
48204;BME280;33994;50.998;5.864;2023-01-28T02:51:58;102330.78;;;2.11;82.17
48204;BME280;33994;50.998;5.864;2023-01-28T02:55:08;102340.91;;;2.06;82.08
48204;BME280;33994;50.998;5.864;2023-01-28T02:58:18;102328.94;;;2.08;82.10
48204;BME280;33994;50.998;5.864;2023-01-28T03:01:31;102338.50;;;2.11;81.99
48204;BME280;33994;50.998;5.864;2023-01-28T03:04:43;102343.72;;;2.12;81.98
48204;BME280;33994;50.998;5.864;2023-01-28T03:07:48;102342.78;;;2.10;81.92
48204;BME280;33994;50.998;5.864;2023-01-28T03:10:54;102342.59;;;2.06;81.85
48204;BME280;33994;50.998;5.864;2023-01-28T03:13:58;102352.03;;;2.05;81.89
48204;BME280;33994;50.998;5.864;2023-01-28T03:17:03;102337.22;;;2.01;82.03
48204;BME280;33994;50.998;5.864;2023-01-28T03:20:08;102350.13;;;2.01;81.94
48204;BME280;33994;50.998;5.864;2023-01-28T03:23:17;102342.59;;;2.06;81.77
48204;BME280;33994;50.998;5.864;2023-01-28T03:26:26;102350.34;;;2.06;82.10
48204;BME280;33994;50.998;5.864;2023-01-28T03:29:32;102344.22;;;2.04;81.79
48204;BME280;33994;50.998;5.864;2023-01-28T03:32:38;102346.06;;;2.06;81.73
48204;BME280;33994;50.998;5.864;2023-01-28T03:35:43;102344.31;;;2.05;81.54
48204;BME280;33994;50.998;5.864;2023-01-28T03:38:46;102344.41;;;2.08;81.45
48204;BME280;33994;50.998;5.864;2023-01-28T03:41:58;102352.09;;;2.07;81.25
48204;BME280;33994;50.998;5.864;2023-01-28T03:45:02;102353.72;;;2.05;81.16
48204;BME280;33994;50.998;5.864;2023-01-28T03:48:06;102349.19;;;1.99;80.49
48204;BME280;33994;50.998;5.864;2023-01-28T03:51:10;102349.19;;;1.99;80.69
48204;BME280;33994;50.998;5.864;2023-01-28T03:54:13;102357.75;;;1.98;80.49
48204;BME280;33994;50.998;5.864;2023-01-28T03:57:17;102358.47;;;1.96;80.39
48204;BME280;33994;50.998;5.864;2023-01-28T04:00:21;102360.31;;;1.98;80.21
48204;BME280;33994;50.998;5.864;2023-01-28T04:03:26;102375.13;;;2.02;79.89
48204;BME280;33994;50.998;5.864;2023-01-28T04:06:29;102374.97;;;1.99;79.76
48204;BME280;33994;50.998;5.864;2023-01-28T04:09:32;102366.97;;;1.93;79.09
48204;BME280;33994;50.998;5.864;2023-01-28T04:12:35;102371.03;;;1.88;78.97
48204;BME280;33994;50.998;5.864;2023-01-28T04:15:38;102372.78;;;1.89;78.98
48204;BME280;33994;50.998;5.864;2023-01-28T04:18:43;102367.50;;;1.86;79.23
48204;BME280;33994;50.998;5.864;2023-01-28T04:21:47;102368.41;;;1.86;78.87
48204;BME280;33994;50.998;5.864;2023-01-28T04:24:50;102375.91;;;1.82;78.38
48204;BME280;33994;50.998;5.864;2023-01-28T04:27:53;102380.97;;;1.79;78.56
48204;BME280;33994;50.998;5.864;2023-01-28T04:30:56;102387.72;;;1.77;78.22
48204;BME280;33994;50.998;5.864;2023-01-28T04:34:00;102386.84;;;1.76;77.96
48204;BME280;33994;50.998;5.864;2023-01-28T04:37:03;102392.94;;;1.78;78.46
48204;BME280;33994;50.998;5.864;2023-01-28T04:40:07;102388.75;;;1.80;78.33
48204;BME280;33994;50.998;5.864;2023-01-28T04:43:11;102384.31;;;1.78;78.23
48204;BME280;33994;50.998;5.864;2023-01-28T04:46:14;102395.31;;;1.74;78.37
48204;BME280;33994;50.998;5.864;2023-01-28T04:49:18;102386.50;;;1.68;78.48
48204;BME280;33994;50.998;5.864;2023-01-28T04:52:21;102391.72;;;1.70;78.36
48204;BME280;33994;50.998;5.864;2023-01-28T04:55:25;102392.47;;;1.67;78.14
48204;BME280;33994;50.998;5.864;2023-01-28T04:58:28;102389.75;;;1.64;78.63
48204;BME280;33994;50.998;5.864;2023-01-28T05:01:31;102387.91;;;1.62;78.54
48204;BME280;33994;50.998;5.864;2023-01-28T05:04:36;102388.72;;;1.61;78.54
48204;BME280;33994;50.998;5.864;2023-01-28T05:07:38;102379.94;;;1.57;78.78
48204;BME280;33994;50.998;5.864;2023-01-28T05:10:42;102383.19;;;1.53;78.98
48204;BME280;33994;50.998;5.864;2023-01-28T05:13:44;102384.97;;;1.54;79.00
48204;BME280;33994;50.998;5.864;2023-01-28T05:16:49;102380.47;;;1.50;78.53
48204;BME280;33994;50.998;5.864;2023-01-28T05:19:53;102394.25;;;1.51;78.22
48204;BME280;33994;50.998;5.864;2023-01-28T05:22:56;102386.59;;;1.52;78.24
48204;BME280;33994;50.998;5.864;2023-01-28T05:25:59;102396.75;;;1.49;77.44
48204;BME280;33994;50.998;5.864;2023-01-28T05:29:03;102386.25;;;1.44;77.04
48204;BME280;33994;50.998;5.864;2023-01-28T05:32:06;102390.63;;;1.47;76.81
48204;BME280;33994;50.998;5.864;2023-01-28T05:35:10;102407.91;;;1.48;76.58
48204;BME280;33994;50.998;5.864;2023-01-28T05:38:13;102400.81;;;1.44;76.19
48204;BME280;33994;50.998;5.864;2023-01-28T05:41:17;102410.19;;;1.42;76.23
48204;BME280;33994;50.998;5.864;2023-01-28T05:44:20;102411.00;;;1.41;76.54
48204;BME280;33994;50.998;5.864;2023-01-28T05:47:22;102408.47;;;1.42;76.25
48204;BME280;33994;50.998;5.864;2023-01-28T05:50:27;102411.94;;;1.43;75.96
48204;BME280;33994;50.998;5.864;2023-01-28T05:53:30;102419.88;;;1.48;75.87
48204;BME280;33994;50.998;5.864;2023-01-28T05:56:33;102429.16;;;1.44;75.30
48204;BME280;33994;50.998;5.864;2023-01-28T05:59:36;102434.41;;;1.46;75.79
48204;BME280;33994;50.998;5.864;2023-01-28T06:02:40;102434.31;;;1.44;75.75
48204;BME280;33994;50.998;5.864;2023-01-28T06:05:45;102433.44;;;1.43;75.53
48204;BME280;33994;50.998;5.864;2023-01-28T06:08:48;102431.84;;;1.46;75.65
48204;BME280;33994;50.998;5.864;2023-01-28T06:11:50;102417.19;;;1.44;75.38
48204;BME280;33994;50.998;5.864;2023-01-28T06:14:54;102426.69;;;1.46;75.12
48204;BME280;33994;50.998;5.864;2023-01-28T06:17:57;102427.41;;;1.43;75.57
48204;BME280;33994;50.998;5.864;2023-01-28T06:21:01;102428.88;;;1.38;75.41
48204;BME280;33994;50.998;5.864;2023-01-28T06:24:05;102428.69;;;1.33;76.04
48204;BME280;33994;50.998;5.864;2023-01-28T06:27:08;102422.09;;;1.40;75.89
48204;BME280;33994;50.998;5.864;2023-01-28T06:30:11;102422.91;;;1.39;75.22
48204;BME280;33994;50.998;5.864;2023-01-28T06:33:14;102419.47;;;1.38;74.61
48204;BME280;33994;50.998;5.864;2023-01-28T06:36:19;102419.59;;;1.41;75.16
48204;BME280;33994;50.998;5.864;2023-01-28T06:39:22;102422.41;;;1.46;74.93
48204;BME280;33994;50.998;5.864;2023-01-28T06:42:25;102433.75;;;1.50;74.91
48204;BME280;33994;50.998;5.864;2023-01-28T06:45:28;102436.13;;;1.45;74.58
48204;BME280;33994;50.998;5.864;2023-01-28T06:48:31;102439.47;;;1.44;74.51
48204;BME280;33994;50.998;5.864;2023-01-28T06:51:36;102444.41;;;1.39;74.47
48204;BME280;33994;50.998;5.864;2023-01-28T06:54:39;102443.38;;;1.36;74.22
48204;BME280;33994;50.998;5.864;2023-01-28T06:57:42;102449.41;;;1.36;74.18
48204;BME280;33994;50.998;5.864;2023-01-28T07:00:44;102457.31;;;1.39;73.95
48204;BME280;33994;50.998;5.864;2023-01-28T07:03:48;102450.34;;;1.37;74.24
48204;BME280;33994;50.998;5.864;2023-01-28T07:06:52;102441.63;;;1.35;74.52
48204;BME280;33994;50.998;5.864;2023-01-28T07:09:55;102441.63;;;1.35;74.82
48204;BME280;33994;50.998;5.864;2023-01-28T07:12:58;102446.78;;;1.35;74.51
48204;BME280;33994;50.998;5.864;2023-01-28T07:16:01;102447.50;;;1.32;74.83
48204;BME280;33994;50.998;5.864;2023-01-28T07:19:04;102455.13;;;1.29;74.75
48204;BME280;33994;50.998;5.864;2023-01-28T07:22:08;102447.28;;;1.28;74.58
48204;BME280;33994;50.998;5.864;2023-01-28T07:25:12;102451.50;;;1.26;74.38
48204;BME280;33994;50.998;5.864;2023-01-28T07:28:15;102450.53;;;1.24;74.73
48204;BME280;33994;50.998;5.864;2023-01-28T07:31:18;102453.75;;;1.19;74.01
48204;BME280;33994;50.998;5.864;2023-01-28T07:34:21;102448.66;;;1.21;72.69
48204;BME280;33994;50.998;5.864;2023-01-28T07:37:26;102452.28;;;1.25;71.95
48204;BME280;33994;50.998;5.864;2023-01-28T07:40:29;102445.00;;;1.16;72.63
48204;BME280;33994;50.998;5.864;2023-01-28T07:43:31;102441.97;;;1.07;71.98
48204;BME280;33994;50.998;5.864;2023-01-28T07:46:35;102449.78;;;1.08;71.81
48204;BME280;33994;50.998;5.864;2023-01-28T07:49:38;102438.66;;;1.09;72.00
48204;BME280;33994;50.998;5.864;2023-01-28T07:52:42;102442.84;;;1.07;71.41
48204;BME280;33994;50.998;5.864;2023-01-28T07:55:45;102453.44;;;1.13;71.68
48204;BME280;33994;50.998;5.864;2023-01-28T07:58:48;102462.66;;;1.08;71.29
48204;BME280;33994;50.998;5.864;2023-01-28T08:01:52;102464.66;;;1.14;71.17
48204;BME280;33994;50.998;5.864;2023-01-28T08:04:55;102482.28;;;1.23;70.19
48204;BME280;33994;50.998;5.864;2023-01-28T08:07:59;102480.19;;;1.15;70.27
48204;BME280;33994;50.998;5.864;2023-01-28T08:11:06;102482.38;;;1.08;70.21
48204;BME280;33994;50.998;5.864;2023-01-28T08:14:10;102492.03;;;1.12;70.92
48204;BME280;33994;50.998;5.864;2023-01-28T08:17:13;102493.25;;;1.18;70.16
48204;BME280;33994;50.998;5.864;2023-01-28T08:20:16;102492.44;;;1.19;69.63
48204;BME280;33994;50.998;5.864;2023-01-28T08:23:20;102488.25;;;1.22;70.18
48204;BME280;33994;50.998;5.864;2023-01-28T08:26:24;102493.69;;;1.28;69.77
48204;BME280;33994;50.998;5.864;2023-01-28T08:29:26;102493.03;;;1.32;69.61
48204;BME280;33994;50.998;5.864;2023-01-28T08:32:29;102504.31;;;1.34;69.70
48204;BME280;33994;50.998;5.864;2023-01-28T08:35:33;102508.72;;;1.36;69.50
48204;BME280;33994;50.998;5.864;2023-01-28T08:38:37;102505.25;;;1.36;69.61
48204;BME280;33994;50.998;5.864;2023-01-28T08:41:41;102504.31;;;1.34;69.65
48204;BME280;33994;50.998;5.864;2023-01-28T08:44:43;102516.31;;;1.33;69.48
48204;BME280;33994;50.998;5.864;2023-01-28T08:47:47;102508.88;;;1.22;69.13
48204;BME280;33994;50.998;5.864;2023-01-28T08:50:51;102521.59;;;1.18;70.15
48204;BME280;33994;50.998;5.864;2023-01-28T08:53:55;102522.53;;;1.20;70.17
48204;BME280;33994;50.998;5.864;2023-01-28T08:56:58;102533.00;;;1.24;69.18
48204;BME280;33994;50.998;5.864;2023-01-28T09:00:01;102537.34;;;1.25;69.81
48204;BME280;33994;50.998;5.864;2023-01-28T09:03:05;102543.47;;;1.27;69.63
48204;BME280;33994;50.998;5.864;2023-01-28T09:06:08;102536.78;;;1.30;69.40
48204;BME280;33994;50.998;5.864;2023-01-28T09:09:12;102548.88;;;1.31;70.00
48204;BME280;33994;50.998;5.864;2023-01-28T09:12:15;102550.78;;;1.35;69.72
48204;BME280;33994;50.998;5.864;2023-01-28T09:15:18;102556.81;;;1.36;69.96
48204;BME280;33994;50.998;5.864;2023-01-28T09:18:22;102550.72;;;1.34;70.04
48204;BME280;33994;50.998;5.864;2023-01-28T09:21:25;102560.00;;;1.30;69.89
48204;BME280;33994;50.998;5.864;2023-01-28T09:24:29;102554.03;;;1.31;69.33
48204;BME280;33994;50.998;5.864;2023-01-28T09:27:32;102569.72;;;1.36;69.73
48204;BME280;33994;50.998;5.864;2023-01-28T09:30:35;102571.34;;;1.34;69.58
48204;BME280;33994;50.998;5.864;2023-01-28T09:33:39;102558.13;;;1.28;69.64
48204;BME280;33994;50.998;5.864;2023-01-28T09:36:42;102565.88;;;1.28;69.40
48204;BME280;33994;50.998;5.864;2023-01-28T09:39:47;102560.88;;;1.31;69.51
48204;BME280;33994;50.998;5.864;2023-01-28T09:43:00;102577.94;;;1.29;69.38
48204;BME280;33994;50.998;5.864;2023-01-28T09:46:10;102575.53;;;1.32;69.19
48204;BME280;33994;50.998;5.864;2023-01-28T09:49:18;102573.91;;;1.34;68.62
48204;BME280;33994;50.998;5.864;2023-01-28T09:52:24;102573.09;;;1.35;68.82
48204;BME280;33994;50.998;5.864;2023-01-28T09:55:32;102582.59;;;1.36;68.81
48204;BME280;33994;50.998;5.864;2023-01-28T09:58:35;102578.19;;;1.33;68.50
48204;BME280;33994;50.998;5.864;2023-01-28T10:01:42;102598.50;;;1.27;68.01
48204;BME280;33994;50.998;5.864;2023-01-28T10:04:56;102585.22;;;1.19;68.21
48204;BME280;33994;50.998;5.864;2023-01-28T10:08:14;102584.22;;;1.17;68.53
48204;BME280;33994;50.998;5.864;2023-01-28T10:11:37;102587.63;;;1.16;68.41
48204;BME280;33994;50.998;5.864;2023-01-28T10:14:52;102586.19;;;1.22;68.43
48204;BME280;33994;50.998;5.864;2023-01-28T10:18:01;102587.31;;;1.27;68.52
48204;BME280;33994;50.998;5.864;2023-01-28T10:21:11;102588.25;;;1.29;68.22
48204;BME280;33994;50.998;5.864;2023-01-28T10:24:15;102572.00;;;1.30;67.80
48204;BME280;33994;50.998;5.864;2023-01-28T10:27:22;102571.50;;;1.37;68.45
48204;BME280;33994;50.998;5.864;2023-01-28T10:30:29;102575.13;;;1.40;68.15
48204;BME280;33994;50.998;5.864;2023-01-28T10:33:35;102568.13;;;1.38;68.83
48204;BME280;33994;50.998;5.864;2023-01-28T10:36:38;102566.47;;;1.40;69.03
48204;BME280;33994;50.998;5.864;2023-01-28T10:39:42;102568.41;;;1.44;69.03
48204;BME280;33994;50.998;5.864;2023-01-28T10:42:47;102565.53;;;1.38;68.57
48204;BME280;33994;50.998;5.864;2023-01-28T10:45:56;102577.38;;;1.34;68.93
48204;BME280;33994;50.998;5.864;2023-01-28T10:49:05;102576.41;;;1.32;68.79
48204;BME280;33994;50.998;5.864;2023-01-28T10:52:14;102577.06;;;1.28;68.99
48204;BME280;33994;50.998;5.864;2023-01-28T10:55:18;102587.47;;;1.30;68.93
48204;BME280;33994;50.998;5.864;2023-01-28T10:58:23;102588.41;;;1.32;69.11
48204;BME280;33994;50.998;5.864;2023-01-28T11:01:40;102589.16;;;1.29;68.34
48204;BME280;33994;50.998;5.864;2023-01-28T11:04:44;102588.56;;;1.35;68.61
48204;BME280;33994;50.998;5.864;2023-01-28T11:07:47;102580.34;;;1.42;68.28
48204;BME280;33994;50.998;5.864;2023-01-28T11:10:51;102579.63;;;1.44;67.93
48204;BME280;33994;50.998;5.864;2023-01-28T11:13:56;102588.91;;;1.41;67.56
48204;BME280;33994;50.998;5.864;2023-01-28T11:16:59;102602.56;;;1.40;67.29
48204;BME280;33994;50.998;5.864;2023-01-28T11:20:09;102598.88;;;1.35;66.95
48204;BME280;33994;50.998;5.864;2023-01-28T11:23:18;102603.22;;;1.36;67.20
48204;BME280;33994;50.998;5.864;2023-01-28T11:26:25;102604.03;;;1.35;67.38
48204;BME280;33994;50.998;5.864;2023-01-28T11:29:31;102600.81;;;1.39;67.34
48204;BME280;33994;50.998;5.864;2023-01-28T11:32:35;102589.28;;;1.32;67.26
48204;BME280;33994;50.998;5.864;2023-01-28T11:35:38;102582.31;;;1.30;67.62
48204;BME280;33994;50.998;5.864;2023-01-28T11:38:50;102572.94;;;1.32;67.07
48204;BME280;33994;50.998;5.864;2023-01-28T11:41:53;102572.22;;;1.34;67.48
48204;BME280;33994;50.998;5.864;2023-01-28T11:45:09;102580.94;;;1.54;67.30
48204;BME280;33994;50.998;5.864;2023-01-28T11:48:29;102585.34;;;1.39;66.57
48204;BME280;33994;50.998;5.864;2023-01-28T11:51:39;102576.50;;;1.34;66.93
48204;BME280;33994;50.998;5.864;2023-01-28T11:54:53;102569.59;;;1.33;66.64
48204;BME280;33994;50.998;5.864;2023-01-28T11:58:06;102567.94;;;1.35;67.14
48204;BME280;33994;50.998;5.864;2023-01-28T12:01:22;102568.13;;;1.38;67.09
48204;BME280;33994;50.998;5.864;2023-01-28T12:04:42;102560.44;;;1.39;67.17
48204;BME280;33994;50.998;5.864;2023-01-28T12:07:53;102575.75;;;1.36;67.46
48204;BME280;33994;50.998;5.864;2023-01-28T12:11:11;102576.00;;;1.25;66.86
48204;BME280;33994;50.998;5.864;2023-01-28T12:14:24;102577.31;;;1.16;67.01
48204;BME280;33994;50.998;5.864;2023-01-28T12:17:37;102562.00;;;1.19;66.98
48204;BME280;33994;50.998;5.864;2023-01-28T12:20:51;102559.75;;;1.26;66.97
48204;BME280;33994;50.998;5.864;2023-01-28T12:24:09;102552.03;;;1.26;67.19
48204;BME280;33994;50.998;5.864;2023-01-28T12:27:25;102537.66;;;1.31;67.27
48204;BME280;33994;50.998;5.864;2023-01-28T12:30:44;102548.97;;;1.33;67.62
48204;BME280;33994;50.998;5.864;2023-01-28T12:37:29;102542.88;;;1.32;66.83
48204;BME280;33994;50.998;5.864;2023-01-28T12:40:49;102521.31;;;1.30;66.90
48204;BME280;33994;50.998;5.864;2023-01-28T12:43:59;102505.19;;;1.34;66.83
48204;BME280;33994;50.998;5.864;2023-01-28T12:47:07;102491.44;;;1.34;66.55
48204;BME280;33994;50.998;5.864;2023-01-28T12:50:15;102505.25;;;1.36;66.49
48204;BME280;33994;50.998;5.864;2023-01-28T12:53:21;102511.50;;;1.23;66.11
48204;BME280;33994;50.998;5.864;2023-01-28T12:56:28;102494.19;;;1.20;67.16
48204;BME280;33994;50.998;5.864;2023-01-28T12:59:36;102481.13;;;1.17;66.94
48204;BME280;33994;50.998;5.864;2023-01-28T13:02:44;102482.94;;;1.18;67.14
48204;BME280;33994;50.998;5.864;2023-01-28T13:05:52;102471.81;;;1.19;66.90
48204;BME280;33994;50.998;5.864;2023-01-28T13:08:59;102456.28;;;1.18;66.71
48204;BME280;33994;50.998;5.864;2023-01-28T13:12:04;102458.03;;;1.19;66.50
48204;BME280;33994;50.998;5.864;2023-01-28T13:15:11;102437.41;;;1.19;66.64
48204;BME280;33994;50.998;5.864;2023-01-28T13:18:31;102457.88;;;1.16;66.14
48204;BME280;33994;50.998;5.864;2023-01-28T13:21:36;102470.84;;;1.17;66.20
48204;BME280;33994;50.998;5.864;2023-01-28T13:24:39;102477.34;;;1.27;66.23
48204;BME280;33994;50.998;5.864;2023-01-28T13:27:53;102469.81;;;1.32;66.43
48204;BME280;33994;50.998;5.864;2023-01-28T13:31:01;102477.06;;;1.39;66.53
48204;BME280;33994;50.998;5.864;2023-01-28T13:34:06;102471.25;;;1.43;66.86
48204;BME280;33994;50.998;5.864;2023-01-28T13:37:21;102490.25;;;1.45;66.95
48204;BME280;33994;50.998;5.864;2023-01-28T13:40:27;102503.16;;;1.45;66.96
48204;BME280;33994;50.998;5.864;2023-01-28T13:43:36;102515.66;;;1.37;66.79
48204;BME280;33994;50.998;5.864;2023-01-28T13:46:39;102517.59;;;1.41;67.23
48204;BME280;33994;50.998;5.864;2023-01-28T13:49:45;102510.88;;;1.45;66.80
48204;BME280;33994;50.998;5.864;2023-01-28T13:52:55;102510.22;;;1.49;66.81
48204;BME280;33994;50.998;5.864;2023-01-28T13:56:04;102515.28;;;1.48;66.54
48204;BME280;33994;50.998;5.864;2023-01-28T13:59:18;102519.28;;;1.41;67.06
48204;BME280;33994;50.998;5.864;2023-01-28T14:02:43;102520.22;;;1.43;66.57
48204;BME280;33994;50.998;5.864;2023-01-28T14:09:57;102520.31;;;1.44;66.35
48204;BME280;33994;50.998;5.864;2023-01-28T14:13:34;102520.53;;;1.49;66.00
48204;BME280;33994;50.998;5.864;2023-01-28T14:16:44;102522.47;;;1.53;66.10
48204;BME280;33994;50.998;5.864;2023-01-28T14:19:52;102515.28;;;1.48;65.88
48204;BME280;33994;50.998;5.864;2023-01-28T14:22:58;102515.38;;;1.49;66.34
48204;BME280;33994;50.998;5.864;2023-01-28T14:26:14;102503.06;;;1.43;65.83
48204;BME280;33994;50.998;5.864;2023-01-28T14:29:26;102502.94;;;1.40;65.84
48204;BME280;33994;50.998;5.864;2023-01-28T14:32:35;102494.53;;;1.44;65.80
48204;BME280;33994;50.998;5.864;2023-01-28T14:35:43;102484.28;;;1.46;65.88
48204;BME280;33994;50.998;5.864;2023-01-28T14:38:47;102480.09;;;1.48;66.01
48204;BME280;33994;50.998;5.864;2023-01-28T14:41:53;102480.59;;;1.41;66.06
48204;BME280;33994;50.998;5.864;2023-01-28T14:45:06;102481.41;;;1.40;66.22
48204;BME280;33994;50.998;5.864;2023-01-28T14:48:22;102470.28;;;1.41;65.65
48204;BME280;33994;50.998;5.864;2023-01-28T14:51:42;102482.22;;;1.39;65.63
48204;BME280;33994;50.998;5.864;2023-01-28T14:54:56;102476.91;;;1.36;65.52
48204;BME280;33994;50.998;5.864;2023-01-28T14:58:07;102475.81;;;1.31;65.59
48204;BME280;33994;50.998;5.864;2023-01-28T15:01:19;102474.75;;;1.27;65.54
48204;BME280;33994;50.998;5.864;2023-01-28T15:04:25;102476.41;;;1.25;65.93
48204;BME280;33994;50.998;5.864;2023-01-28T15:07:29;102466.00;;;1.24;66.08
48204;BME280;33994;50.998;5.864;2023-01-28T15:10:35;102464.06;;;1.19;66.25
48204;BME280;33994;50.998;5.864;2023-01-28T15:13:43;102460.53;;;1.17;66.09
48204;BME280;33994;50.998;5.864;2023-01-28T15:16:48;102471.50;;;1.13;66.02
48204;BME280;33994;50.998;5.864;2023-01-28T15:19:51;102487.59;;;1.09;66.23
48204;BME280;33994;50.998;5.864;2023-01-28T15:22:55;102485.78;;;1.07;66.09
48204;BME280;33994;50.998;5.864;2023-01-28T15:26:03;102482.94;;;1.02;66.57
48204;BME280;33994;50.998;5.864;2023-01-28T15:29:22;102483.59;;;0.98;66.88
48204;BME280;33994;50.998;5.864;2023-01-28T15:32:27;102492.66;;;0.90;67.01
48204;BME280;33994;50.998;5.864;2023-01-28T15:35:31;102496.09;;;0.90;67.31
48204;BME280;33994;50.998;5.864;2023-01-28T15:38:37;102490.94;;;0.90;67.53
48204;BME280;33994;50.998;5.864;2023-01-28T15:41:43;102497.00;;;0.91;67.03
48204;BME280;33994;50.998;5.864;2023-01-28T15:44:48;102498.03;;;0.94;67.10
48204;BME280;33994;50.998;5.864;2023-01-28T15:47:52;102495.53;;;0.96;67.43
48204;BME280;33994;50.998;5.864;2023-01-28T15:51:05;102500.53;;;0.93;67.46
48204;BME280;33994;50.998;5.864;2023-01-28T15:54:10;102503.94;;;0.92;67.51
48204;BME280;33994;50.998;5.864;2023-01-28T15:57:17;102506.91;;;1.00;67.22
48204;BME280;33994;50.998;5.864;2023-01-28T16:00:24;102506.00;;;0.99;67.65
48204;BME280;33994;50.998;5.864;2023-01-28T16:03:27;102497.25;;;0.95;68.12
48204;BME280;33994;50.998;5.864;2023-01-28T16:06:32;102522.91;;;0.94;67.89
48204;BME280;33994;50.998;5.864;2023-01-28T16:09:36;102532.25;;;0.92;68.17
48204;BME280;33994;50.998;5.864;2023-01-28T16:12:39;102533.78;;;0.88;68.65
48204;BME280;33994;50.998;5.864;2023-01-28T16:15:46;102529.53;;;0.89;68.41
48204;BME280;33994;50.998;5.864;2023-01-28T16:18:52;102542.41;;;0.89;68.61
48204;BME280;33994;50.998;5.864;2023-01-28T16:21:56;102553.69;;;0.91;68.84
48204;BME280;33994;50.998;5.864;2023-01-28T16:24:59;102556.75;;;0.84;68.99
48204;BME280;33994;50.998;5.864;2023-01-28T16:28:15;102566.88;;;0.81;68.99
48204;BME280;33994;50.998;5.864;2023-01-28T16:31:21;102573.31;;;0.73;69.52
48204;BME280;33994;50.998;5.864;2023-01-28T16:34:24;102576.69;;;0.71;69.93